sensor_id;sensor_type;location;lat;lon;timestamp;P1;durP1;ratioP1;P2;durP2;ratioP2
77026;SDS011;65956;52.986;17.490;2024-03-02T00:00:51;60.90;;;29.70;;
77026;SDS011;65956;52.986;17.490;2024-03-02T00:03:38;60.60;;;33.10;;
77026;SDS011;65956;52.986;17.490;2024-03-02T00:06:04;60.00;;;31.60;;
77026;SDS011;65956;52.986;17.490;2024-03-02T00:08:30;62.30;;;33.90;;
77026;SDS011;65956;52.986;17.490;2024-03-02T00:10:57;59.20;;;32.70;;
77026;SDS011;65956;52.986;17.490;2024-03-02T00:13:24;58.10;;;30.70;;
77026;SDS011;65956;52.986;17.490;2024-03-02T00:15:55;62.60;;;32.90;;
77026;SDS011;65956;52.986;17.490;2024-03-02T00:18:26;56.90;;;30.10;;
77026;SDS011;65956;52.986;17.490;2024-03-02T00:20:56;59.50;;;30.70;;
77026;SDS011;65956;52.986;17.490;2024-03-02T00:23:23;59.50;;;31.70;;
77026;SDS011;65956;52.986;17.490;2024-03-02T00:25:51;57.20;;;28.90;;
77026;SDS011;65956;52.986;17.490;2024-03-02T00:28:22;59.20;;;29.30;;
77026;SDS011;65956;52.986;17.490;2024-03-02T00:33:39;57.40;;;29.30;;
77026;SDS011;65956;52.986;17.490;2024-03-02T00:36:08;60.30;;;31.40;;
77026;SDS011;65956;52.986;17.490;2024-03-02T00:38:34;52.90;;;28.30;;
77026;SDS011;65956;52.986;17.490;2024-03-02T00:41:29;60.70;;;31.30;;
77026;SDS011;65956;52.986;17.490;2024-03-02T00:46:23;62.80;;;31.20;;
77026;SDS011;65956;52.986;17.490;2024-03-02T00:48:51;58.60;;;31.30;;
77026;SDS011;65956;52.986;17.490;2024-03-02T00:51:20;58.20;;;30.60;;
77026;SDS011;65956;52.986;17.490;2024-03-02T00:53:47;61.40;;;31.00;;
77026;SDS011;65956;52.986;17.490;2024-03-02T00:56:13;58.80;;;29.40;;
77026;SDS011;65956;52.986;17.490;2024-03-02T00:58:40;70.10;;;33.90;;
77026;SDS011;65956;52.986;17.490;2024-03-02T01:01:06;65.20;;;32.50;;
77026;SDS011;65956;52.986;17.490;2024-03-02T01:03:33;63.80;;;33.10;;
77026;SDS011;65956;52.986;17.490;2024-03-02T01:05:59;59.70;;;32.00;;
77026;SDS011;65956;52.986;17.490;2024-03-02T01:08:25;63.00;;;30.80;;
77026;SDS011;65956;52.986;17.490;2024-03-02T01:10:52;70.00;;;35.00;;
77026;SDS011;65956;52.986;17.490;2024-03-02T01:13:18;59.00;;;30.70;;
77026;SDS011;65956;52.986;17.490;2024-03-02T01:15:44;70.60;;;34.20;;
77026;SDS011;65956;52.986;17.490;2024-03-02T01:18:10;60.80;;;28.50;;
77026;SDS011;65956;52.986;17.490;2024-03-02T01:20:36;65.90;;;32.90;;
77026;SDS011;65956;52.986;17.490;2024-03-02T01:23:02;68.50;;;33.50;;
77026;SDS011;65956;52.986;17.490;2024-03-02T01:25:28;63.60;;;30.40;;
77026;SDS011;65956;52.986;17.490;2024-03-02T01:27:55;71.60;;;35.10;;
77026;SDS011;65956;52.986;17.490;2024-03-02T01:30:24;70.30;;;33.70;;
77026;SDS011;65956;52.986;17.490;2024-03-02T01:32:50;61.90;;;31.30;;
77026;SDS011;65956;52.986;17.490;2024-03-02T01:35:16;60.50;;;31.00;;
77026;SDS011;65956;52.986;17.490;2024-03-02T01:37:42;66.00;;;33.10;;
77026;SDS011;65956;52.986;17.490;2024-03-02T01:40:08;67.00;;;31.10;;
77026;SDS011;65956;52.986;17.490;2024-03-02T01:42:38;66.70;;;30.70;;
77026;SDS011;65956;52.986;17.490;2024-03-02T01:45:08;64.70;;;31.90;;
77026;SDS011;65956;52.986;17.490;2024-03-02T01:47:34;59.00;;;29.70;;
77026;SDS011;65956;52.986;17.490;2024-03-02T01:50:01;67.00;;;32.90;;
77026;SDS011;65956;52.986;17.490;2024-03-02T01:52:27;71.70;;;32.30;;
77026;SDS011;65956;52.986;17.490;2024-03-02T01:54:53;72.40;;;33.10;;
77026;SDS011;65956;52.986;17.490;2024-03-02T01:57:19;64.70;;;30.50;;
77026;SDS011;65956;52.986;17.490;2024-03-02T01:59:46;69.90;;;31.90;;
77026;SDS011;65956;52.986;17.490;2024-03-02T02:02:16;65.20;;;31.10;;
77026;SDS011;65956;52.986;17.490;2024-03-02T02:04:42;69.40;;;31.30;;
77026;SDS011;65956;52.986;17.490;2024-03-02T02:07:09;65.70;;;31.20;;
77026;SDS011;65956;52.986;17.490;2024-03-02T02:09:35;69.70;;;33.70;;
77026;SDS011;65956;52.986;17.490;2024-03-02T02:12:02;72.60;;;31.10;;
77026;SDS011;65956;52.986;17.490;2024-03-02T02:14:30;66.10;;;33.00;;
77026;SDS011;65956;52.986;17.490;2024-03-02T02:16:56;68.60;;;33.10;;
77026;SDS011;65956;52.986;17.490;2024-03-02T02:19:22;71.70;;;32.60;;
77026;SDS011;65956;52.986;17.490;2024-03-02T02:21:49;72.10;;;33.20;;
77026;SDS011;65956;52.986;17.490;2024-03-02T02:24:15;68.90;;;32.50;;
77026;SDS011;65956;52.986;17.490;2024-03-02T02:26:41;62.90;;;30.90;;
77026;SDS011;65956;52.986;17.490;2024-03-02T02:29:07;69.10;;;32.00;;
77026;SDS011;65956;52.986;17.490;2024-03-02T02:31:39;67.10;;;32.20;;
77026;SDS011;65956;52.986;17.490;2024-03-02T02:34:06;58.60;;;29.00;;
77026;SDS011;65956;52.986;17.490;2024-03-02T02:36:33;63.40;;;30.00;;
77026;SDS011;65956;52.986;17.490;2024-03-02T02:39:02;55.40;;;25.10;;
77026;SDS011;65956;52.986;17.490;2024-03-02T02:41:29;66.60;;;31.10;;
77026;SDS011;65956;52.986;17.490;2024-03-02T02:43:56;60.60;;;30.00;;
77026;SDS011;65956;52.986;17.490;2024-03-02T02:46:22;57.90;;;28.40;;
77026;SDS011;65956;52.986;17.490;2024-03-02T02:48:48;61.10;;;30.90;;
77026;SDS011;65956;52.986;17.490;2024-03-02T02:51:15;63.90;;;31.40;;
77026;SDS011;65956;52.986;17.490;2024-03-02T02:53:42;63.20;;;31.00;;
77026;SDS011;65956;52.986;17.490;2024-03-02T02:56:08;59.40;;;29.70;;
77026;SDS011;65956;52.986;17.490;2024-03-02T02:58:34;60.10;;;29.90;;
77026;SDS011;65956;52.986;17.490;2024-03-02T03:01:01;55.60;;;27.20;;
77026;SDS011;65956;52.986;17.490;2024-03-02T03:03:27;58.90;;;29.80;;
77026;SDS011;65956;52.986;17.490;2024-03-02T03:05:53;57.70;;;28.10;;
77026;SDS011;65956;52.986;17.490;2024-03-02T03:08:19;52.00;;;27.10;;
77026;SDS011;65956;52.986;17.490;2024-03-02T03:10:45;57.30;;;28.20;;
77026;SDS011;65956;52.986;17.490;2024-03-02T03:13:12;56.00;;;27.70;;
77026;SDS011;65956;52.986;17.490;2024-03-02T03:15:38;51.60;;;25.30;;
77026;SDS011;65956;52.986;17.490;2024-03-02T03:18:04;55.10;;;29.10;;
77026;SDS011;65956;52.986;17.490;2024-03-02T03:20:30;51.70;;;27.00;;
77026;SDS011;65956;52.986;17.490;2024-03-02T03:22:57;53.60;;;26.00;;
77026;SDS011;65956;52.986;17.490;2024-03-02T03:25:23;57.10;;;28.40;;
77026;SDS011;65956;52.986;17.490;2024-03-02T03:27:49;55.00;;;28.20;;
77026;SDS011;65956;52.986;17.490;2024-03-02T03:30:17;50.20;;;25.80;;
77026;SDS011;65956;52.986;17.490;2024-03-02T03:32:44;54.00;;;27.20;;
77026;SDS011;65956;52.986;17.490;2024-03-02T03:35:10;49.30;;;25.50;;
77026;SDS011;65956;52.986;17.490;2024-03-02T03:37:38;54.20;;;27.50;;
77026;SDS011;65956;52.986;17.490;2024-03-02T03:40:04;54.00;;;27.10;;
77026;SDS011;65956;52.986;17.490;2024-03-02T03:45:05;50.60;;;25.40;;
77026;SDS011;65956;52.986;17.490;2024-03-02T03:47:32;53.30;;;26.20;;
77026;SDS011;65956;52.986;17.490;2024-03-02T03:49:58;55.80;;;27.60;;
77026;SDS011;65956;52.986;17.490;2024-03-02T03:52:24;55.30;;;28.70;;
77026;SDS011;65956;52.986;17.490;2024-03-02T03:54:51;58.40;;;28.10;;
77026;SDS011;65956;52.986;17.490;2024-03-02T03:57:17;50.10;;;25.90;;
77026;SDS011;65956;52.986;17.490;2024-03-02T03:59:43;50.50;;;27.80;;
77026;SDS011;65956;52.986;17.490;2024-03-02T04:02:10;45.50;;;24.00;;
77026;SDS011;65956;52.986;17.490;2024-03-02T04:04:38;51.60;;;24.70;;
77026;SDS011;65956;52.986;17.490;2024-03-02T04:07:04;50.20;;;26.10;;
77026;SDS011;65956;52.986;17.490;2024-03-02T04:09:30;51.50;;;25.90;;
77026;SDS011;65956;52.986;17.490;2024-03-02T04:11:56;50.00;;;26.40;;
77026;SDS011;65956;52.986;17.490;2024-03-02T04:14:22;44.10;;;23.20;;
77026;SDS011;65956;52.986;17.490;2024-03-02T04:16:48;44.90;;;23.80;;
77026;SDS011;65956;52.986;17.490;2024-03-02T04:19:14;46.80;;;26.10;;
77026;SDS011;65956;52.986;17.490;2024-03-02T04:21:40;47.90;;;25.00;;
77026;SDS011;65956;52.986;17.490;2024-03-02T04:24:07;42.90;;;23.10;;
77026;SDS011;65956;52.986;17.490;2024-03-02T04:26:33;44.20;;;23.70;;
77026;SDS011;65956;52.986;17.490;2024-03-02T04:29:00;40.60;;;23.40;;
77026;SDS011;65956;52.986;17.490;2024-03-02T04:31:26;45.30;;;23.50;;
77026;SDS011;65956;52.986;17.490;2024-03-02T04:33:52;48.90;;;26.90;;
77026;SDS011;65956;52.986;17.490;2024-03-02T04:36:18;47.10;;;23.40;;
77026;SDS011;65956;52.986;17.490;2024-03-02T04:38:44;48.70;;;26.80;;
77026;SDS011;65956;52.986;17.490;2024-03-02T04:41:10;47.30;;;24.00;;
77026;SDS011;65956;52.986;17.490;2024-03-02T04:43:36;42.90;;;23.60;;
77026;SDS011;65956;52.986;17.490;2024-03-02T04:46:02;44.30;;;23.30;;
77026;SDS011;65956;52.986;17.490;2024-03-02T04:48:28;49.20;;;26.00;;
77026;SDS011;65956;52.986;17.490;2024-03-02T04:50:54;50.90;;;25.60;;
77026;SDS011;65956;52.986;17.490;2024-03-02T04:53:21;50.00;;;26.60;;
77026;SDS011;65956;52.986;17.490;2024-03-02T04:55:47;49.20;;;25.60;;
77026;SDS011;65956;52.986;17.490;2024-03-02T04:58:21;50.40;;;26.70;;
77026;SDS011;65956;52.986;17.490;2024-03-02T05:00:48;51.50;;;26.60;;
77026;SDS011;65956;52.986;17.490;2024-03-02T05:03:14;48.30;;;27.30;;
77026;SDS011;65956;52.986;17.490;2024-03-02T05:05:40;50.70;;;26.60;;
77026;SDS011;65956;52.986;17.490;2024-03-02T05:08:06;51.80;;;26.60;;
77026;SDS011;65956;52.986;17.490;2024-03-02T05:10:32;47.40;;;26.30;;
77026;SDS011;65956;52.986;17.490;2024-03-02T05:12:58;48.80;;;27.20;;
77026;SDS011;65956;52.986;17.490;2024-03-02T05:15:25;47.20;;;24.40;;
77026;SDS011;65956;52.986;17.490;2024-03-02T05:17:51;47.40;;;25.50;;
77026;SDS011;65956;52.986;17.490;2024-03-02T05:20:18;46.60;;;25.50;;
77026;SDS011;65956;52.986;17.490;2024-03-02T05:22:44;42.00;;;23.50;;
77026;SDS011;65956;52.986;17.490;2024-03-02T05:25:10;39.20;;;20.60;;
77026;SDS011;65956;52.986;17.490;2024-03-02T05:27:36;45.60;;;25.10;;
77026;SDS011;65956;52.986;17.490;2024-03-02T05:30:03;43.50;;;23.40;;
77026;SDS011;65956;52.986;17.490;2024-03-02T05:32:32;44.20;;;23.50;;
77026;SDS011;65956;52.986;17.490;2024-03-02T05:35:01;41.70;;;23.10;;
77026;SDS011;65956;52.986;17.490;2024-03-02T05:37:28;42.40;;;22.90;;
77026;SDS011;65956;52.986;17.490;2024-03-02T05:39:54;38.20;;;21.90;;
77026;SDS011;65956;52.986;17.490;2024-03-02T05:42:20;45.10;;;24.30;;
77026;SDS011;65956;52.986;17.490;2024-03-02T05:44:46;39.60;;;21.70;;
77026;SDS011;65956;52.986;17.490;2024-03-02T05:47:13;40.90;;;22.10;;
77026;SDS011;65956;52.986;17.490;2024-03-02T05:49:39;40.30;;;22.10;;
77026;SDS011;65956;52.986;17.490;2024-03-02T05:52:05;43.00;;;23.50;;
77026;SDS011;65956;52.986;17.490;2024-03-02T05:54:32;38.30;;;20.30;;
77026;SDS011;65956;52.986;17.490;2024-03-02T05:56:58;43.20;;;23.10;;
77026;SDS011;65956;52.986;17.490;2024-03-02T05:59:42;43.50;;;23.20;;
77026;SDS011;65956;52.986;17.490;2024-03-02T06:02:09;44.00;;;25.50;;
77026;SDS011;65956;52.986;17.490;2024-03-02T06:04:35;44.30;;;23.80;;
77026;SDS011;65956;52.986;17.490;2024-03-02T06:07:01;39.50;;;21.70;;
77026;SDS011;65956;52.986;17.490;2024-03-02T06:09:28;43.20;;;25.00;;
77026;SDS011;65956;52.986;17.490;2024-03-02T06:11:54;38.40;;;22.90;;
77026;SDS011;65956;52.986;17.490;2024-03-02T06:14:20;40.90;;;22.80;;
77026;SDS011;65956;52.986;17.490;2024-03-02T06:16:46;41.20;;;21.40;;
77026;SDS011;65956;52.986;17.490;2024-03-02T06:19:12;42.00;;;22.20;;
77026;SDS011;65956;52.986;17.490;2024-03-02T06:21:38;43.40;;;25.40;;
77026;SDS011;65956;52.986;17.490;2024-03-02T06:24:04;38.00;;;21.80;;
77026;SDS011;65956;52.986;17.490;2024-03-02T06:26:31;43.10;;;24.60;;
77026;SDS011;65956;52.986;17.490;2024-03-02T06:28:57;39.70;;;23.20;;
77026;SDS011;65956;52.986;17.490;2024-03-02T06:31:23;37.60;;;21.40;;
77026;SDS011;65956;52.986;17.490;2024-03-02T06:33:51;36.20;;;20.70;;
77026;SDS011;65956;52.986;17.490;2024-03-02T06:36:17;37.50;;;21.50;;
77026;SDS011;65956;52.986;17.490;2024-03-02T06:38:43;41.90;;;22.30;;
77026;SDS011;65956;52.986;17.490;2024-03-02T06:41:09;42.30;;;23.00;;
77026;SDS011;65956;52.986;17.490;2024-03-02T06:43:36;41.50;;;23.30;;
77026;SDS011;65956;52.986;17.490;2024-03-02T06:46:02;39.20;;;23.10;;
77026;SDS011;65956;52.986;17.490;2024-03-02T06:48:29;40.70;;;22.10;;
77026;SDS011;65956;52.986;17.490;2024-03-02T06:50:55;37.50;;;21.20;;
77026;SDS011;65956;52.986;17.490;2024-03-02T06:53:23;38.00;;;21.40;;
77026;SDS011;65956;52.986;17.490;2024-03-02T06:55:49;36.40;;;21.20;;
77026;SDS011;65956;52.986;17.490;2024-03-02T06:58:15;34.10;;;20.10;;
77026;SDS011;65956;52.986;17.490;2024-03-02T07:00:42;39.00;;;22.40;;
77026;SDS011;65956;52.986;17.490;2024-03-02T07:03:08;36.90;;;20.70;;
77026;SDS011;65956;52.986;17.490;2024-03-02T07:05:35;38.40;;;22.50;;
77026;SDS011;65956;52.986;17.490;2024-03-02T07:08:01;33.70;;;19.00;;
77026;SDS011;65956;52.986;17.490;2024-03-02T07:10:29;33.20;;;19.10;;
77026;SDS011;65956;52.986;17.490;2024-03-02T07:12:55;32.30;;;19.50;;
77026;SDS011;65956;52.986;17.490;2024-03-02T07:15:21;33.50;;;21.30;;
77026;SDS011;65956;52.986;17.490;2024-03-02T07:17:53;31.30;;;18.30;;
77026;SDS011;65956;52.986;17.490;2024-03-02T07:20:19;32.30;;;19.40;;
77026;SDS011;65956;52.986;17.490;2024-03-02T07:22:45;35.50;;;20.10;;
77026;SDS011;65956;52.986;17.490;2024-03-02T07:25:11;30.30;;;18.20;;
77026;SDS011;65956;52.986;17.490;2024-03-02T07:27:38;31.50;;;19.00;;
77026;SDS011;65956;52.986;17.490;2024-03-02T07:30:05;31.20;;;17.80;;
77026;SDS011;65956;52.986;17.490;2024-03-02T07:32:32;31.40;;;19.20;;
77026;SDS011;65956;52.986;17.490;2024-03-02T07:34:58;31.90;;;19.20;;
77026;SDS011;65956;52.986;17.490;2024-03-02T07:37:24;34.80;;;20.00;;
77026;SDS011;65956;52.986;17.490;2024-03-02T07:39:50;33.70;;;18.60;;
77026;SDS011;65956;52.986;17.490;2024-03-02T07:42:17;33.50;;;19.50;;
77026;SDS011;65956;52.986;17.490;2024-03-02T07:44:44;31.80;;;19.60;;
77026;SDS011;65956;52.986;17.490;2024-03-02T07:47:11;31.30;;;18.70;;
77026;SDS011;65956;52.986;17.490;2024-03-02T07:49:37;33.60;;;19.80;;
77026;SDS011;65956;52.986;17.490;2024-03-02T07:52:03;30.50;;;18.20;;
77026;SDS011;65956;52.986;17.490;2024-03-02T07:54:29;31.90;;;19.80;;
77026;SDS011;65956;52.986;17.490;2024-03-02T07:56:56;32.20;;;18.70;;
77026;SDS011;65956;52.986;17.490;2024-03-02T07:59:22;32.30;;;19.70;;
77026;SDS011;65956;52.986;17.490;2024-03-02T08:01:48;31.90;;;19.70;;
77026;SDS011;65956;52.986;17.490;2024-03-02T08:04:15;31.10;;;19.60;;
77026;SDS011;65956;52.986;17.490;2024-03-02T08:06:42;29.40;;;19.20;;
77026;SDS011;65956;52.986;17.490;2024-03-02T08:09:08;32.30;;;18.90;;
77026;SDS011;65956;52.986;17.490;2024-03-02T08:11:37;32.20;;;20.40;;
77026;SDS011;65956;52.986;17.490;2024-03-02T08:14:04;30.30;;;19.30;;
77026;SDS011;65956;52.986;17.490;2024-03-02T08:16:30;29.10;;;18.70;;
77026;SDS011;65956;52.986;17.490;2024-03-02T08:18:56;27.50;;;16.80;;
77026;SDS011;65956;52.986;17.490;2024-03-02T08:21:23;30.70;;;19.20;;
77026;SDS011;65956;52.986;17.490;2024-03-02T08:23:50;30.60;;;18.40;;
77026;SDS011;65956;52.986;17.490;2024-03-02T08:26:17;28.30;;;18.10;;
77026;SDS011;65956;52.986;17.490;2024-03-02T08:28:43;31.90;;;19.20;;
77026;SDS011;65956;52.986;17.490;2024-03-02T08:31:09;31.50;;;19.50;;
77026;SDS011;65956;52.986;17.490;2024-03-02T08:33:35;31.00;;;18.40;;
77026;SDS011;65956;52.986;17.490;2024-03-02T08:36:02;27.70;;;17.50;;
77026;SDS011;65956;52.986;17.490;2024-03-02T08:38:29;28.90;;;19.40;;
77026;SDS011;65956;52.986;17.490;2024-03-02T08:40:55;29.30;;;19.50;;
77026;SDS011;65956;52.986;17.490;2024-03-02T08:43:22;30.20;;;18.30;;
77026;SDS011;65956;52.986;17.490;2024-03-02T08:45:51;29.90;;;18.60;;
77026;SDS011;65956;52.986;17.490;2024-03-02T08:48:17;30.10;;;18.20;;
77026;SDS011;65956;52.986;17.490;2024-03-02T08:50:43;29.30;;;18.60;;
77026;SDS011;65956;52.986;17.490;2024-03-02T08:53:09;33.10;;;18.90;;
77026;SDS011;65956;52.986;17.490;2024-03-02T08:55:36;32.20;;;20.00;;
77026;SDS011;65956;52.986;17.490;2024-03-02T08:58:02;28.80;;;17.60;;
77026;SDS011;65956;52.986;17.490;2024-03-02T09:00:28;25.60;;;16.40;;
77026;SDS011;65956;52.986;17.490;2024-03-02T09:02:55;29.70;;;17.60;;
77026;SDS011;65956;52.986;17.490;2024-03-02T09:05:21;26.00;;;16.70;;
77026;SDS011;65956;52.986;17.490;2024-03-02T09:07:47;27.20;;;17.50;;
77026;SDS011;65956;52.986;17.490;2024-03-02T09:10:13;26.70;;;17.40;;
77026;SDS011;65956;52.986;17.490;2024-03-02T09:12:39;27.90;;;17.20;;
77026;SDS011;65956;52.986;17.490;2024-03-02T09:15:06;27.00;;;17.30;;
77026;SDS011;65956;52.986;17.490;2024-03-02T09:17:32;25.00;;;16.00;;
77026;SDS011;65956;52.986;17.490;2024-03-02T09:19:59;27.10;;;16.40;;
77026;SDS011;65956;52.986;17.490;2024-03-02T09:22:25;28.60;;;17.00;;
77026;SDS011;65956;52.986;17.490;2024-03-02T09:24:51;27.70;;;17.00;;
77026;SDS011;65956;52.986;17.490;2024-03-02T09:27:17;27.80;;;17.60;;
77026;SDS011;65956;52.986;17.490;2024-03-02T09:29:43;28.00;;;17.70;;
77026;SDS011;65956;52.986;17.490;2024-03-02T09:32:12;26.20;;;18.30;;
77026;SDS011;65956;52.986;17.490;2024-03-02T09:34:39;27.80;;;17.70;;
77026;SDS011;65956;52.986;17.490;2024-03-02T09:37:06;25.20;;;17.20;;
77026;SDS011;65956;52.986;17.490;2024-03-02T09:39:32;25.40;;;16.50;;
77026;SDS011;65956;52.986;17.490;2024-03-02T09:41:58;28.10;;;17.10;;
77026;SDS011;65956;52.986;17.490;2024-03-02T09:44:25;29.40;;;17.50;;
77026;SDS011;65956;52.986;17.490;2024-03-02T09:46:52;29.30;;;18.50;;
77026;SDS011;65956;52.986;17.490;2024-03-02T09:49:18;27.10;;;18.10;;
77026;SDS011;65956;52.986;17.490;2024-03-02T09:51:46;27.30;;;17.50;;
77026;SDS011;65956;52.986;17.490;2024-03-02T09:54:13;29.10;;;18.60;;
77026;SDS011;65956;52.986;17.490;2024-03-02T09:56:39;27.50;;;17.40;;
77026;SDS011;65956;52.986;17.490;2024-03-02T09:59:05;26.80;;;17.30;;
77026;SDS011;65956;52.986;17.490;2024-03-02T10:01:31;28.70;;;18.70;;
77026;SDS011;65956;52.986;17.490;2024-03-02T12:00:29;22.90;;;16.70;;
77026;SDS011;65956;52.986;17.490;2024-03-02T12:03:03;25.70;;;17.70;;
77026;SDS011;65956;52.986;17.490;2024-03-02T12:05:31;25.30;;;17.50;;
77026;SDS011;65956;52.986;17.490;2024-03-02T12:07:58;26.30;;;20.30;;
77026;SDS011;65956;52.986;17.490;2024-03-02T12:10:25;26.40;;;18.20;;
77026;SDS011;65956;52.986;17.490;2024-03-02T12:12:58;24.60;;;18.90;;
77026;SDS011;65956;52.986;17.490;2024-03-02T12:15:32;23.20;;;18.00;;
77026;SDS011;65956;52.986;17.490;2024-03-02T12:18:01;21.80;;;16.70;;
77026;SDS011;65956;52.986;17.490;2024-03-02T12:20:28;23.00;;;17.10;;
77026;SDS011;65956;52.986;17.490;2024-03-02T12:22:57;24.10;;;17.20;;
77026;SDS011;65956;52.986;17.490;2024-03-02T12:25:25;25.50;;;19.30;;
77026;SDS011;65956;52.986;17.490;2024-03-02T12:27:55;25.70;;;19.30;;
77026;SDS011;65956;52.986;17.490;2024-03-02T12:32:49;23.80;;;17.50;;
77026;SDS011;65956;52.986;17.490;2024-03-02T12:35:15;22.60;;;17.60;;
77026;SDS011;65956;52.986;17.490;2024-03-02T12:37:47;23.40;;;17.90;;
77026;SDS011;65956;52.986;17.490;2024-03-02T12:40:15;22.00;;;16.50;;
77026;SDS011;65956;52.986;17.490;2024-03-02T12:42:44;23.70;;;17.90;;
77026;SDS011;65956;52.986;17.490;2024-03-02T12:45:11;22.00;;;17.90;;
77026;SDS011;65956;52.986;17.490;2024-03-02T12:47:39;21.50;;;17.10;;
77026;SDS011;65956;52.986;17.490;2024-03-02T12:50:06;23.00;;;19.20;;
77026;SDS011;65956;52.986;17.490;2024-03-02T12:52:33;24.10;;;19.60;;
77026;SDS011;65956;52.986;17.490;2024-03-02T12:55:04;22.30;;;19.00;;
77026;SDS011;65956;52.986;17.490;2024-03-02T12:57:31;23.40;;;19.00;;
77026;SDS011;65956;52.986;17.490;2024-03-02T12:59:58;24.10;;;19.30;;
77026;SDS011;65956;52.986;17.490;2024-03-02T13:02:28;22.20;;;19.70;;
77026;SDS011;65956;52.986;17.490;2024-03-02T13:04:55;25.20;;;21.10;;
77026;SDS011;65956;52.986;17.490;2024-03-02T13:07:23;25.00;;;20.50;;
77026;SDS011;65956;52.986;17.490;2024-03-02T13:09:49;24.30;;;21.10;;
77026;SDS011;65956;52.986;17.490;2024-03-02T13:12:19;23.90;;;21.00;;
77026;SDS011;65956;52.986;17.490;2024-03-02T13:14:48;23.60;;;20.70;;
77026;SDS011;65956;52.986;17.490;2024-03-02T13:17:16;24.40;;;19.90;;
77026;SDS011;65956;52.986;17.490;2024-03-02T13:22:22;24.70;;;21.70;;
77026;SDS011;65956;52.986;17.490;2024-03-02T13:24:49;26.00;;;21.00;;
77026;SDS011;65956;52.986;17.490;2024-03-02T13:27:17;26.60;;;20.30;;
77026;SDS011;65956;52.986;17.490;2024-03-02T13:29:45;23.90;;;21.20;;
77026;SDS011;65956;52.986;17.490;2024-03-02T13:32:13;24.10;;;20.20;;
77026;SDS011;65956;52.986;17.490;2024-03-02T13:34:40;25.30;;;22.60;;
77026;SDS011;65956;52.986;17.490;2024-03-02T13:37:06;24.40;;;21.00;;
77026;SDS011;65956;52.986;17.490;2024-03-02T13:39:33;23.00;;;19.70;;
77026;SDS011;65956;52.986;17.490;2024-03-02T13:42:08;25.90;;;21.40;;
77026;SDS011;65956;52.986;17.490;2024-03-02T13:44:36;25.30;;;20.60;;
77026;SDS011;65956;52.986;17.490;2024-03-02T13:47:03;26.40;;;21.20;;
77026;SDS011;65956;52.986;17.490;2024-03-02T13:49:30;24.30;;;20.30;;
77026;SDS011;65956;52.986;17.490;2024-03-02T13:52:00;26.00;;;22.00;;
77026;SDS011;65956;52.986;17.490;2024-03-02T13:54:29;26.10;;;20.80;;
77026;SDS011;65956;52.986;17.490;2024-03-02T13:56:56;24.30;;;20.60;;
77026;SDS011;65956;52.986;17.490;2024-03-02T13:59:25;25.00;;;20.00;;
77026;SDS011;65956;52.986;17.490;2024-03-02T14:01:51;26.40;;;21.20;;
77026;SDS011;65956;52.986;17.490;2024-03-02T14:04:18;26.40;;;20.90;;
77026;SDS011;65956;52.986;17.490;2024-03-02T14:06:44;25.70;;;20.70;;
77026;SDS011;65956;52.986;17.490;2024-03-02T14:09:25;30.80;;;22.00;;
77026;SDS011;65956;52.986;17.490;2024-03-02T14:11:56;30.20;;;22.00;;
77026;SDS011;65956;52.986;17.490;2024-03-02T14:14:22;26.60;;;20.80;;
77026;SDS011;65956;52.986;17.490;2024-03-02T14:16:49;26.20;;;19.50;;
77026;SDS011;65956;52.986;17.490;2024-03-02T14:19:15;28.70;;;20.90;;
77026;SDS011;65956;52.986;17.490;2024-03-02T14:21:41;27.90;;;20.90;;
77026;SDS011;65956;52.986;17.490;2024-03-02T14:24:07;31.40;;;22.40;;
77026;SDS011;65956;52.986;17.490;2024-03-02T14:26:34;25.70;;;20.00;;
77026;SDS011;65956;52.986;17.490;2024-03-02T14:32:06;29.80;;;21.70;;
77026;SDS011;65956;52.986;17.490;2024-03-02T14:34:32;30.60;;;21.60;;
77026;SDS011;65956;52.986;17.490;2024-03-02T14:36:59;30.00;;;20.40;;
77026;SDS011;65956;52.986;17.490;2024-03-02T14:39:27;32.10;;;21.20;;
77026;SDS011;65956;52.986;17.490;2024-03-02T14:41:53;32.30;;;21.80;;
77026;SDS011;65956;52.986;17.490;2024-03-02T14:44:20;28.60;;;19.20;;
77026;SDS011;65956;52.986;17.490;2024-03-02T14:46:47;30.20;;;20.40;;
77026;SDS011;65956;52.986;17.490;2024-03-02T14:49:14;33.70;;;21.90;;
77026;SDS011;65956;52.986;17.490;2024-03-02T14:51:41;34.30;;;22.00;;
77026;SDS011;65956;52.986;17.490;2024-03-02T14:54:07;34.10;;;22.30;;
77026;SDS011;65956;52.986;17.490;2024-03-02T14:56:33;37.70;;;22.80;;
77026;SDS011;65956;52.986;17.490;2024-03-02T14:59:01;35.00;;;22.40;;
77026;SDS011;65956;52.986;17.490;2024-03-02T15:01:36;33.30;;;21.60;;
77026;SDS011;65956;52.986;17.490;2024-03-02T15:04:02;35.70;;;22.60;;
77026;SDS011;65956;52.986;17.490;2024-03-02T15:06:34;32.30;;;21.30;;
77026;SDS011;65956;52.986;17.490;2024-03-02T15:09:04;37.30;;;24.20;;
77026;SDS011;65956;52.986;17.490;2024-03-02T15:11:36;33.80;;;21.40;;
77026;SDS011;65956;52.986;17.490;2024-03-02T15:14:02;41.10;;;23.60;;
77026;SDS011;65956;52.986;17.490;2024-03-02T15:16:31;38.20;;;23.70;;
77026;SDS011;65956;52.986;17.490;2024-03-02T15:19:03;43.50;;;25.70;;
77026;SDS011;65956;52.986;17.490;2024-03-02T15:21:36;39.20;;;23.10;;
77026;SDS011;65956;52.986;17.490;2024-03-02T15:24:02;46.20;;;27.50;;
77026;SDS011;65956;52.986;17.490;2024-03-02T15:26:32;43.90;;;24.30;;
77026;SDS011;65956;52.986;17.490;2024-03-02T15:29:07;43.50;;;23.60;;
77026;SDS011;65956;52.986;17.490;2024-03-02T15:31:33;42.50;;;23.40;;
77026;SDS011;65956;52.986;17.490;2024-03-02T15:34:02;44.90;;;25.20;;
77026;SDS011;65956;52.986;17.490;2024-03-02T15:36:32;45.40;;;26.10;;
77026;SDS011;65956;52.986;17.490;2024-03-02T15:39:02;46.10;;;25.10;;
77026;SDS011;65956;52.986;17.490;2024-03-02T15:41:32;44.30;;;24.40;;
77026;SDS011;65956;52.986;17.490;2024-03-02T15:43:59;44.70;;;26.20;;
77026;SDS011;65956;52.986;17.490;2024-03-02T15:46:28;45.50;;;24.90;;
77026;SDS011;65956;52.986;17.490;2024-03-02T15:49:01;46.60;;;25.30;;
77026;SDS011;65956;52.986;17.490;2024-03-02T15:51:27;44.60;;;25.30;;
77026;SDS011;65956;52.986;17.490;2024-03-02T15:53:53;48.80;;;25.40;;
77026;SDS011;65956;52.986;17.490;2024-03-02T15:56:20;48.00;;;25.80;;
77026;SDS011;65956;52.986;17.490;2024-03-02T15:58:46;49.00;;;25.60;;
77026;SDS011;65956;52.986;17.490;2024-03-02T16:01:12;50.80;;;27.20;;
77026;SDS011;65956;52.986;17.490;2024-03-02T16:03:39;53.20;;;27.10;;
77026;SDS011;65956;52.986;17.490;2024-03-02T16:06:05;51.20;;;26.60;;
77026;SDS011;65956;52.986;17.490;2024-03-02T16:08:31;53.40;;;28.00;;
77026;SDS011;65956;52.986;17.490;2024-03-02T16:10:57;53.30;;;27.10;;
77026;SDS011;65956;52.986;17.490;2024-03-02T16:13:23;51.50;;;25.90;;
77026;SDS011;65956;52.986;17.490;2024-03-02T16:15:50;54.90;;;27.60;;
77026;SDS011;65956;52.986;17.490;2024-03-02T16:18:16;55.00;;;28.30;;
77026;SDS011;65956;52.986;17.490;2024-03-02T16:20:42;52.50;;;26.50;;